Time;durP1;ratioP1;P1;durP2;ratioP2;P2;SDS_P1;SDS_P2;PMS_P1;PMS_P2;Temp;Humidity;BMP_temperature;BMP_pressure;BME280_temperature;BME280_humidity;BME280_pressure;Samples;Min_cycle;Max_cycle;Signal;HPM_P1;HPM_P2
2023/06/09 00:00:46;;;;;;;16.70;6.10;;;23.60;79.60;;;;;;5094719;28;20436;-80
2023/06/09 00:03:11;;;;;;;13.10;6.03;;;23.60;79.80;;;;;;5094755;28;20040;-80
2023/06/09 00:05:39;;;;;;;13.05;5.90;;;23.50;79.90;;;;;;5094315;28;20040;-79
2023/06/09 00:08:04;;;;;;;13.05;6.45;;;23.50;80.00;;;;;;5094433;28;20024;-81
2023/06/09 00:10:30;;;;;;;17.40;7.22;;;23.50;80.10;;;;;;5094437;28;20077;-80
2023/06/09 00:12:57;;;;;;;13.55;6.78;;;23.40;80.30;;;;;;5094261;28;20512;-80
2023/06/09 00:15:23;;;;;;;15.00;6.90;;;23.40;80.20;;;;;;5094247;28;20036;-80
2023/06/09 00:17:48;;;;;;;15.95;7.53;;;23.40;80.40;;;;;;5094619;28;20032;-80
2023/06/09 00:20:15;;;;;;;13.82;6.78;;;23.30;80.50;;;;;;5093713;28;20104;-80
2023/06/09 00:22:44;;;;;;;13.60;7.03;;;23.30;80.50;;;;;;5094004;28;20114;-79
2023/06/09 00:25:15;;;;;;;15.00;7.25;;;23.30;81.10;;;;;;5094029;28;20043;-80
2023/06/09 00:27:41;;;;;;;12.55;7.05;;;23.30;80.60;;;;;;5093925;28;20139;-79
2023/06/09 00:30:07;;;;;;;12.50;6.90;;;23.20;80.70;;;;;;5092711;28;20036;-80
2023/06/09 00:32:34;;;;;;;13.55;5.90;;;23.30;80.90;;;;;;5095153;28;20043;-80
2023/06/09 00:34:59;;;;;;;16.33;7.65;;;23.30;80.30;;;;;;5096923;28;20434;-81
2023/06/09 00:37:25;;;;;;;11.45;6.95;;;23.30;80.20;;;;;;5098746;28;20097;-81
2023/06/09 00:39:51;;;;;;;12.68;7.05;;;23.20;80.40;;;;;;5094710;28;20020;-81
2023/06/09 00:42:16;;;;;;;12.75;7.88;;;23.20;80.50;;;;;;5094117;28;20427;-79
2023/06/09 00:44:42;;;;;;;15.68;7.85;;;23.20;80.50;;;;;;5096796;28;20032;-80
2023/06/09 00:47:08;;;;;;;15.35;7.43;;;23.20;80.60;;;;;;5095375;28;20059;-80
2023/06/09 00:49:35;;;;;;;17.70;7.47;;;23.10;80.60;;;;;;5093827;28;20059;-81
2023/06/09 00:52:01;;;;;;;12.55;7.07;;;23.10;80.60;;;;;;5094109;28;20028;-80
2023/06/09 00:54:28;;;;;;;17.17;7.35;;;23.00;81.00;;;;;;5094001;28;20062;-80
2023/06/09 00:56:55;;;;;;;18.45;7.50;;;23.00;81.00;;;;;;5100126;28;20024;-80
2023/06/09 00:59:21;;;;;;;14.10;6.72;;;23.00;81.00;;;;;;5078478;28;20565;-80
2023/06/09 01:01:47;;;;;;;14.13;7.32;;;23.00;81.10;;;;;;5093654;28;20028;-80
2023/06/09 01:04:13;;;;;;;11.88;7.00;;;23.00;81.00;;;;;;5093515;28;20036;-80
2023/06/09 01:06:42;;;;;;;15.13;7.22;;;23.00;80.90;;;;;;5093317;28;20048;-80
2023/06/09 01:09:41;;;;;;;11.88;6.93;;;22.90;81.30;;;;;;5093293;28;20032;-80
2023/06/09 01:12:20;;;;;;;18.85;8.20;;;23.00;81.40;;;;;;5093554;28;20059;-79
2023/06/09 01:14:58;;;;;;;13.98;7.15;;;22.90;80.80;;;;;;5093218;28;20036;-80
2023/06/09 01:17:27;;;;;;;13.48;8.02;;;22.90;80.90;;;;;;5093185;28;20121;-80
2023/06/09 01:19:58;;;;;;;23.90;8.65;;;22.90;81.00;;;;;;5093476;28;20036;-81
2023/06/09 01:22:48;;;;;;;14.00;8.05;;;22.90;81.20;;;;;;5074662;28;20028;-80
2023/06/09 01:25:41;;;;;;;17.92;7.53;;;22.80;81.80;;;;;;5093050;28;20048;-81
2023/06/09 01:28:11;;;;;;;16.25;8.52;;;22.80;81.30;;;;;;5089978;28;20036;-80
2023/06/09 01:30:40;;;;;;;19.50;8.68;;;22.80;81.10;;;;;;5092640;28;20046;-79
2023/06/09 01:33:09;;;;;;;14.30;7.90;;;22.80;81.20;;;;;;5091939;28;20062;-80
2023/06/09 01:35:36;;;;;;;17.35;8.48;;;22.80;81.40;;;;;;5093548;28;20046;-80
2023/06/09 01:38:03;;;;;;;17.85;8.43;;;22.70;81.70;;;;;;5092635;28;20124;-80
2023/06/09 01:40:31;;;;;;;10.57;7.00;;;22.70;82.00;;;;;;5092651;28;20077;-79
2023/06/09 01:42:59;;;;;;;16.25;8.50;;;22.70;82.10;;;;;;5092585;28;20502;-81
2023/06/09 01:45:25;;;;;;;14.10;7.65;;;22.70;82.10;;;;;;5074321;28;20040;-79
2023/06/09 01:47:52;;;;;;;12.40;7.25;;;22.70;82.20;;;;;;5092621;28;20032;-79
2023/06/09 01:50:31;;;;;;;13.82;7.90;;;22.60;82.30;;;;;;5074180;28;20039;-78
2023/06/09 01:53:35;;;;;;;14.68;8.10;;;22.70;82.90;;;;;;5092111;28;20039;-80
2023/06/09 01:56:22;;;;;;;15.63;7.50;;;22.70;82.10;;;;;;5010385;28;20057;-79
2023/06/09 01:58:53;;;;;;;14.30;7.97;;;22.70;82.10;;;;;;5088928;28;20105;-79
2023/06/09 02:01:21;;;;;;;12.75;7.55;;;22.80;81.80;;;;;;5092396;28;20043;-79
2023/06/09 02:03:49;;;;;;;11.40;7.35;;;22.80;81.90;;;;;;5092382;28;20035;-78
2023/06/09 02:06:19;;;;;;;12.52;7.85;;;22.80;81.90;;;;;;5092439;28;20047;-81
2023/06/09 02:08:45;;;;;;;15.98;7.45;;;22.70;82.10;;;;;;5092097;28;20035;-80
2023/06/09 02:11:11;;;;;;;13.77;7.45;;;22.70;82.20;;;;;;5092652;28;20104;-79
2023/06/09 02:13:37;;;;;;;14.90;6.85;;;22.70;82.30;;;;;;5094525;28;20036;-80
2023/06/09 02:16:03;;;;;;;16.63;7.72;;;22.60;82.50;;;;;;5102100;28;20032;-80
2023/06/09 02:18:32;;;;;;;13.90;7.78;;;22.70;82.60;;;;;;5093483;28;20031;-80
2023/06/09 02:20:58;;;;;;;18.70;7.45;;;22.70;82.20;;;;;;5093082;28;20044;-80
2023/06/09 02:23:24;;;;;;;10.73;6.78;;;22.70;82.00;;;;;;5093579;28;20397;-80
2023/06/09 02:25:51;;;;;;;14.85;6.85;;;22.70;82.00;;;;;;5095337;28;20063;-80
2023/06/09 02:28:17;;;;;;;15.57;7.25;;;22.70;82.30;;;;;;5092112;28;20037;-79
2023/06/09 02:30:44;;;;;;;15.38;6.95;;;22.60;82.20;;;;;;5091812;28;20043;-80
2023/06/09 02:33:11;;;;;;;13.60;6.75;;;22.60;82.80;;;;;;5092197;28;20386;-79
2023/06/09 02:35:36;;;;;;;11.15;6.25;;;22.60;82.10;;;;;;5073920;28;20040;-79
2023/06/09 02:38:05;;;;;;;15.88;6.65;;;22.60;82.30;;;;;;5092408;28;20036;-80
2023/06/09 02:40:32;;;;;;;14.40;6.28;;;22.60;82.30;;;;;;5091756;28;20112;-79
2023/06/09 02:42:58;;;;;;;14.27;6.38;;;22.60;82.20;;;;;;5092241;28;20096;-80
2023/06/09 02:45:24;;;;;;;14.38;6.22;;;22.50;82.10;;;;;;5095134;28;20123;-79
2023/06/09 02:47:50;;;;;;;12.25;5.93;;;22.40;82.30;;;;;;5096034;28;20047;-80
2023/06/09 02:50:16;;;;;;;14.05;6.50;;;22.30;82.40;;;;;;5095855;28;20020;-80
2023/06/09 02:52:42;;;;;;;11.57;6.10;;;22.30;82.60;;;;;;5096306;28;20109;-80
2023/06/09 02:55:08;;;;;;;12.20;6.20;;;22.20;82.60;;;;;;5095966;28;20044;-80
2023/06/09 02:57:34;;;;;;;20.60;8.90;;;22.20;82.70;;;;;;5096530;28;20043;-79
2023/06/09 03:00:00;;;;;;;13.07;6.38;;;22.20;82.90;;;;;;5095982;28;20126;-79
2023/06/09 03:02:28;;;;;;;12.57;6.68;;;22.20;83.00;;;;;;5096772;28;20118;-79
2023/06/09 03:04:55;;;;;;;17.05;6.72;;;22.20;82.90;;;;;;5096669;28;20043;-80
2023/06/09 03:07:20;;;;;;;13.32;5.93;;;22.20;83.00;;;;;;5095666;28;20044;-80
2023/06/09 03:09:46;;;;;;;12.02;6.07;;;22.20;82.80;;;;;;5096013;28;20093;-79
2023/06/09 03:12:12;;;;;;;10.15;6.45;;;22.20;82.90;;;;;;5096537;28;20016;-80
2023/06/09 03:14:37;;;;;;;14.88;6.78;;;22.10;83.00;;;;;;5077581;28;20036;-79
2023/06/09 03:17:07;;;;;;;11.32;6.10;;;22.10;83.30;;;;;;5095454;28;20071;-80
2023/06/09 03:19:32;;;;;;;11.55;5.85;;;22.10;83.50;;;;;;5095586;28;20431;-79
2023/06/09 03:21:58;;;;;;;14.30;6.63;;;22.10;83.10;;;;;;5095523;28;20127;-80
2023/06/09 03:24:25;;;;;;;13.55;6.35;;;22.10;83.10;;;;;;5095417;28;20056;-79
2023/06/09 03:26:52;;;;;;;13.27;6.50;;;22.10;83.00;;;;;;5076628;28;20032;-79
2023/06/09 03:29:19;;;;;;;12.80;6.30;;;22.20;83.70;;;;;;5095371;28;20061;-81
2023/06/09 03:31:45;;;;;;;14.75;6.50;;;22.10;82.70;;;;;;5095700;28;20485;-79
2023/06/09 03:34:10;;;;;;;13.75;6.25;;;22.10;83.00;;;;;;5098678;28;20021;-78
2023/06/09 03:36:36;;;;;;;12.27;6.60;;;22.10;82.90;;;;;;5095685;28;20535;-79
2023/06/09 03:39:03;;;;;;;20.80;6.80;;;22.10;83.10;;;;;;5095275;28;20036;-79
2023/06/09 03:41:28;;;;;;;12.90;6.60;;;22.10;82.90;;;;;;5096442;28;20139;-80
2023/06/09 03:43:54;;;;;;;12.88;6.55;;;22.10;83.00;;;;;;5100265;28;20042;-80
2023/06/09 03:46:20;;;;;;;12.77;6.28;;;22.10;83.10;;;;;;5095375;28;20519;-78
2023/06/09 03:48:46;;;;;;;11.38;6.50;;;22.00;83.10;;;;;;5095237;28;20032;-79
2023/06/09 03:51:12;;;;;;;12.55;6.40;;;22.00;83.10;;;;;;5094952;28;20094;-81
2023/06/09 03:53:38;;;;;;;14.88;6.88;;;22.00;83.10;;;;;;5094484;28;20024;-78
2023/06/09 03:56:04;;;;;;;13.82;6.90;;;22.10;83.20;;;;;;5093483;28;20115;-79
2023/06/09 03:58:29;;;;;;;13.95;7.07;;;22.10;83.20;;;;;;5094913;28;20430;-80
2023/06/09 04:00:55;;;;;;;12.77;7.13;;;22.10;83.10;;;;;;5095353;28;20036;-80
2023/06/09 04:03:21;;;;;;;15.00;7.20;;;22.10;83.30;;;;;;5098790;28;20039;-79
2023/06/09 04:05:47;;;;;;;14.60;7.97;;;22.10;83.30;;;;;;5104004;28;20074;-80
2023/06/09 04:08:13;;;;;;;18.50;8.15;;;22.10;83.20;;;;;;5078745;28;20114;-79
2023/06/09 04:10:40;;;;;;;18.48;7.53;;;22.10;83.20;;;;;;5094797;28;20110;-79
2023/06/09 04:13:06;;;;;;;11.38;6.75;;;22.10;83.30;;;;;;5094493;28;20112;-80
2023/06/09 04:15:32;;;;;;;12.13;6.63;;;22.10;83.40;;;;;;5094451;28;20036;-79
2023/06/09 04:17:58;;;;;;;10.60;6.88;;;22.10;83.30;;;;;;5094489;28;20416;-80
2023/06/09 04:20:24;;;;;;;16.15;7.97;;;22.10;83.00;;;;;;5094469;28;20028;-79
2023/06/09 04:22:51;;;;;;;17.60;7.60;;;22.10;83.10;;;;;;5093948;28;20097;-80
2023/06/09 04:25:19;;;;;;;14.32;6.70;;;22.20;82.80;;;;;;5094186;28;20036;-79
2023/06/09 04:27:48;;;;;;;15.55;7.10;;;22.20;83.00;;;;;;5094014;28;20115;-80
2023/06/09 04:30:13;;;;;;;15.73;7.00;;;22.20;83.00;;;;;;5075994;28;20078;-79
2023/06/09 04:32:39;;;;;;;13.98;6.85;;;22.30;83.30;;;;;;5094476;28;20036;-80
2023/06/09 04:35:05;;;;;;;18.17;7.70;;;22.30;83.20;;;;;;5094031;28;20119;-80
2023/06/09 04:37:31;;;;;;;14.85;6.68;;;22.30;83.00;;;;;;5094003;28;20434;-78
2023/06/09 04:39:58;;;;;;;14.88;6.93;;;22.30;83.10;;;;;;5093800;28;20139;-80
2023/06/09 04:42:24;;;;;;;15.95;7.13;;;22.30;83.20;;;;;;5093954;28;20438;-80
2023/06/09 04:44:50;;;;;;;13.05;7.40;;;22.30;83.10;;;;;;5093899;28;20035;-79
2023/06/09 04:47:18;;;;;;;16.02;7.05;;;22.30;83.20;;;;;;5093482;28;20126;-79
2023/06/09 04:49:46;;;;;;;16.60;6.97;;;22.30;83.50;;;;;;5093657;28;20039;-78
2023/06/09 04:52:19;;;;;;;17.38;7.13;;;22.40;83.00;;;;;;5097996;28;20115;-79
2023/06/09 04:54:45;;;;;;;9.93;6.45;;;22.40;83.60;;;;;;5095290;28;20044;-80
2023/06/09 04:57:11;;;;;;;19.90;7.18;;;22.40;82.90;;;;;;5093861;28;20039;-80
2023/06/09 04:59:40;;;;;;;14.63;7.10;;;22.40;83.00;;;;;;5093489;28;20024;-79
2023/06/09 05:02:07;;;;;;;12.52;6.90;;;22.50;82.90;;;;;;5093325;28;20222;-79
2023/06/09 05:04:33;;;;;;;15.20;7.45;;;22.60;82.50;;;;;;5075347;28;20040;-79
2023/06/09 05:07:00;;;;;;;11.52;6.63;;;22.70;82.30;;;;;;5093816;28;20471;-79
2023/06/09 05:09:27;;;;;;;14.13;7.25;;;22.80;82.10;;;;;;5093608;28;20489;-80
2023/06/09 05:11:52;;;;;;;12.02;7.40;;;22.90;81.60;;;;;;5093333;28;20040;-80
2023/06/09 05:14:18;;;;;;;13.65;6.80;;;23.10;81.20;;;;;;5093558;28;20389;-79
2023/06/09 05:16:45;;;;;;;15.90;8.20;;;23.30;80.90;;;;;;5093231;28;20454;-80
2023/06/09 05:19:11;;;;;;;18.13;7.65;;;23.50;79.90;;;;;;5092920;28;20029;-79
2023/06/09 05:21:38;;;;;;;13.25;7.10;;;23.90;78.90;;;;;;5074527;28;20409;-80
2023/06/09 05:24:05;;;;;;;13.55;7.22;;;24.40;77.60;;;;;;5093407;28;20089;-80
2023/06/09 05:26:32;;;;;;;12.63;6.82;;;24.80;76.30;;;;;;5092992;28;20044;-81
2023/06/09 05:28:58;;;;;;;13.32;7.18;;;25.30;74.90;;;;;;5093513;28;20039;-79
2023/06/09 05:31:24;;;;;;;14.77;7.50;;;25.70;73.60;;;;;;5074557;28;20051;-79
2023/06/09 05:33:50;;;;;;;13.98;6.85;;;25.80;73.40;;;;;;5092515;28;20035;-79
2023/06/09 05:36:16;;;;;;;12.65;6.75;;;26.10;72.40;;;;;;5074414;28;20092;-80
2023/06/09 05:38:42;;;;;;;12.88;6.75;;;26.40;71.80;;;;;;5092635;28;20504;-79
2023/06/09 05:41:07;;;;;;;13.05;7.05;;;26.60;71.10;;;;;;5074234;28;20504;-79
2023/06/09 05:43:33;;;;;;;17.10;7.80;;;26.80;70.20;;;;;;5093014;28;20024;-81
2023/06/09 05:45:59;;;;;;;15.45;7.05;;;27.00;70.00;;;;;;5076857;28;20053;-81
2023/06/09 05:48:25;;;;;;;15.73;7.13;;;27.30;69.60;;;;;;5092352;28;20036;-79
2023/06/09 05:50:51;;;;;;;12.38;6.72;;;27.50;68.80;;;;;;5092372;28;20392;-80
2023/06/09 05:53:17;;;;;;;14.10;7.80;;;27.80;68.40;;;;;;5074283;28;20055;-81
2023/06/09 05:55:47;;;;;;;16.65;7.80;;;28.00;67.90;;;;;;5092179;28;20068;-81
2023/06/09 05:58:17;;;;;;;22.33;7.63;;;28.10;67.30;;;;;;5091928;28;20092;-81
2023/06/09 06:00:44;;;;;;;16.77;6.85;;;28.10;67.30;;;;;;5092103;28;20036;-81
2023/06/09 06:03:11;;;;;;;14.45;7.40;;;28.30;66.90;;;;;;5091711;28;20028;-81
2023/06/09 06:05:37;;;;;;;18.10;7.57;;;28.50;66.30;;;;;;5092157;28;20035;-83
2023/06/09 06:08:03;;;;;;;16.58;7.57;;;28.60;66.10;;;;;;5092406;28;20042;-80
2023/06/09 06:10:29;;;;;;;12.85;6.65;;;28.60;65.60;;;;;;5093144;28;20052;-79
2023/06/09 06:12:58;;;;;;;11.02;7.22;;;28.80;65.60;;;;;;5093022;28;20040;-81
2023/06/09 06:15:24;;;;;;;15.82;6.65;;;28.90;64.90;;;;;;5092281;28;20378;-79
2023/06/09 06:17:50;;;;;;;14.30;7.00;;;29.00;64.90;;;;;;5090635;28;20055;-79
2023/06/09 06:20:16;;;;;;;13.95;7.10;;;29.10;64.40;;;;;;5091499;28;20525;-80
2023/06/09 06:22:43;;;;;;;19.52;7.80;;;29.20;64.30;;;;;;5092086;28;20030;-80
2023/06/09 06:25:12;;;;;;;13.35;7.15;;;29.30;63.80;;;;;;5093588;28;20119;-79
2023/06/09 06:27:41;;;;;;;12.32;7.20;;;29.20;63.80;;;;;;5091751;28;20517;-80
2023/06/09 06:30:08;;;;;;;16.35;7.40;;;29.20;63.90;;;;;;5091712;28;20127;-81
2023/06/09 06:32:35;;;;;;;17.85;6.75;;;29.30;63.60;;;;;;5092164;28;20043;-81
2023/06/09 06:35:01;;;;;;;15.75;5.85;;;29.20;63.30;;;;;;5092052;28;20092;-79
2023/06/09 06:37:28;;;;;;;16.13;5.85;;;29.10;63.90;;;;;;5074280;28;20032;-80
2023/06/09 06:39:54;;;;;;;17.33;7.55;;;29.00;64.00;;;;;;5091905;28;20078;-80
2023/06/09 06:42:20;;;;;;;12.05;7.07;;;29.00;63.90;;;;;;5091814;28;20024;-79
2023/06/09 06:44:46;;;;;;;14.93;5.20;;;29.10;63.60;;;;;;5091683;28;20095;-80
2023/06/09 06:47:12;;;;;;;15.07;7.00;;;29.10;63.90;;;;;;5091573;28;20504;-80
2023/06/09 06:49:37;;;;;;;17.70;6.32;;;29.10;63.50;;;;;;5091766;28;20032;-81
2023/06/09 06:52:03;;;;;;;11.88;5.88;;;29.00;63.60;;;;;;5073308;28;20123;-80
2023/06/09 06:54:29;;;;;;;11.70;5.85;;;28.70;63.60;;;;;;5090375;28;20090;-80
2023/06/09 06:56:54;;;;;;;16.27;5.72;;;28.60;64.20;;;;;;5073329;28;20400;-81
2023/06/09 06:59:20;;;;;;;14.32;5.60;;;28.60;64.10;;;;;;5091339;28;20672;-80
2023/06/09 07:01:46;;;;;;;23.20;7.10;;;28.70;63.80;;;;;;5091755;28;20445;-81
2023/06/09 07:04:12;;;;;;;19.30;6.22;;;28.70;63.80;;;;;;5091766;28;20028;-82
2023/06/09 07:06:38;;;;;;;11.82;5.10;;;28.80;63.60;;;;;;5091713;28;20382;-82
2023/06/09 07:09:04;;;;;;;14.38;5.38;;;28.90;63.20;;;;;;5091551;28;20036;-81
2023/06/09 07:11:32;;;;;;;14.80;4.75;;;29.00;62.90;;;;;;5091334;28;20085;-78
2023/06/09 07:13:58;;;;;;;9.50;4.60;;;29.00;62.60;;;;;;5091735;28;20028;-79
2023/06/09 07:16:23;;;;;;;12.30;4.57;;;28.70;62.60;;;;;;5091291;28;20394;-81
2023/06/09 07:18:49;;;;;;;9.48;5.22;;;28.70;62.80;;;;;;5091895;28;20032;-80
2023/06/09 07:21:15;;;;;;;11.48;4.20;;;28.60;62.60;;;;;;5091499;28;20036;-80
2023/06/09 07:23:40;;;;;;;11.45;4.70;;;28.50;62.80;;;;;;5092808;28;20032;-80
2023/06/09 07:26:06;;;;;;;8.35;3.95;;;28.30;63.10;;;;;;5091255;28;20461;-79
2023/06/09 07:28:31;;;;;;;11.90;4.07;;;28.20;62.70;;;;;;5091539;28;20028;-81
2023/06/09 07:30:57;;;;;;;11.57;4.65;;;28.30;62.60;;;;;;5092665;28;20032;-81
2023/06/09 07:33:23;;;;;;;11.52;4.28;;;28.20;62.70;;;;;;5094883;28;20054;-80
2023/06/09 07:35:49;;;;;;;9.63;4.10;;;28.20;62.70;;;;;;5094900;28;20036;-80
2023/06/09 07:38:16;;;;;;;16.38;4.40;;;28.30;62.60;;;;;;5094868;28;20031;-77
2023/06/09 07:40:42;;;;;;;14.02;5.03;;;28.40;62.60;;;;;;5094693;28;20055;-80
2023/06/09 07:43:08;;;;;;;9.02;4.30;;;28.40;62.60;;;;;;5096313;28;20025;-79
2023/06/09 07:45:33;;;;;;;12.18;4.38;;;28.40;62.70;;;;;;5094738;28;20043;-81
2023/06/09 07:47:59;;;;;;;14.93;4.32;;;28.30;62.80;;;;;;5094727;28;20032;-80
2023/06/09 07:50:25;;;;;;;10.77;4.03;;;28.40;63.40;;;;;;5076319;28;20032;-81
2023/06/09 07:52:51;;;;;;;10.90;4.47;;;28.30;62.80;;;;;;5094926;28;20378;-80
2023/06/09 07:55:17;;;;;;;11.52;4.40;;;28.30;62.90;;;;;;5094163;28;20055;-80
2023/06/09 07:57:45;;;;;;;11.18;4.88;;;28.20;63.10;;;;;;5094312;28;20550;-79
2023/06/09 08:00:13;;;;;;;13.68;4.20;;;28.10;63.40;;;;;;5095462;28;20029;-79
2023/06/09 08:02:42;;;;;;;12.77;4.57;;;28.10;63.40;;;;;;5103861;28;20033;-80
2023/06/09 08:05:08;;;;;;;9.05;3.85;;;28.20;63.20;;;;;;5101597;28;20097;-81
2023/06/09 08:07:34;;;;;;;11.38;4.63;;;28.20;62.80;;;;;;5093987;28;20039;-80
2023/06/09 08:10:00;;;;;;;11.07;4.22;;;28.30;62.30;;;;;;5093997;28;20043;-81
2023/06/09 08:12:25;;;;;;;13.32;4.30;;;28.30;62.20;;;;;;5094191;28;20055;-81
2023/06/09 08:14:51;;;;;;;13.32;4.28;;;28.30;62.00;;;;;;5094226;28;20035;-80
2023/06/09 08:17:17;;;;;;;9.85;4.43;;;28.30;62.00;;;;;;5075410;28;20040;-80
2023/06/09 08:19:42;;;;;;;9.68;3.90;;;28.30;62.20;;;;;;5094129;28;20039;-82
2023/06/09 08:22:08;;;;;;;10.05;4.13;;;28.20;62.40;;;;;;5093914;28;20096;-80
2023/06/09 08:24:34;;;;;;;9.18;4.10;;;28.20;62.40;;;;;;5093795;28;20024;-81
2023/06/09 08:26:59;;;;;;;13.00;4.07;;;28.10;62.10;;;;;;5093909;28;20040;-80
2023/06/09 08:29:25;;;;;;;11.60;4.07;;;28.00;62.20;;;;;;5093720;28;20394;-81
2023/06/09 08:31:51;;;;;;;11.43;4.75;;;28.00;62.40;;;;;;5093795;28;20055;-81
2023/06/09 08:34:17;;;;;;;11.38;4.35;;;28.00;62.30;;;;;;5093902;28;20068;-81
2023/06/09 08:36:42;;;;;;;10.75;4.57;;;28.00;62.40;;;;;;5094497;28;20126;-80
2023/06/09 08:39:08;;;;;;;13.57;4.82;;;28.00;62.30;;;;;;5094199;28;20035;-81
2023/06/09 08:41:38;;;;;;;12.25;4.68;;;28.00;62.60;;;;;;5093452;28;20150;-79
2023/06/09 08:44:05;;;;;;;9.60;3.95;;;28.00;62.40;;;;;;5093440;28;20036;-81
2023/06/09 08:46:35;;;;;;;9.27;4.13;;;28.00;61.70;;;;;;5093555;28;20032;-80
2023/06/09 08:49:02;;;;;;;9.60;3.92;;;27.90;61.60;;;;;;5094158;28;20082;-82
2023/06/09 08:51:28;;;;;;;9.20;4.75;;;28.00;61.60;;;;;;5094012;28;20399;-80
2023/06/09 08:53:54;;;;;;;12.77;4.43;;;28.00;61.70;;;;;;5093358;28;20454;-80
2023/06/09 08:56:21;;;;;;;12.93;4.65;;;28.00;62.00;;;;;;5093608;28;20497;-80
2023/06/09 08:58:48;;;;;;;11.38;4.20;;;28.00;62.10;;;;;;5093464;28;20036;-80
2023/06/09 09:01:17;;;;;;;9.40;3.97;;;28.00;62.00;;;;;;5075254;28;20050;-80
2023/06/09 09:03:43;;;;;;;12.23;4.47;;;28.00;61.50;;;;;;5095583;28;20036;-77
2023/06/09 09:06:09;;;;;;;9.93;4.22;;;28.10;61.40;;;;;;5093168;28;20370;-80
2023/06/09 09:08:35;;;;;;;9.43;4.28;;;28.10;61.10;;;;;;5093115;28;20031;-81
2023/06/09 09:11:01;;;;;;;11.25;4.32;;;28.10;61.20;;;;;;5093057;28;20055;-80
2023/06/09 09:13:31;;;;;;;13.18;4.43;;;28.10;61.10;;;;;;5093230;28;20493;-79
2023/06/09 09:15:58;;;;;;;9.77;4.25;;;28.10;61.20;;;;;;5093203;28;20032;-80
2023/06/09 09:18:29;;;;;;;11.82;4.57;;;28.00;61.00;;;;;;5092841;28;20089;-79
2023/06/09 09:20:55;;;;;;;11.63;4.82;;;28.00;61.40;;;;;;5075031;28;20060;-79
2023/06/09 09:23:32;;;;;;;14.13;4.78;;;28.00;61.50;;;;;;5094560;28;20102;-80
2023/06/09 09:26:05;;;;;;;14.55;3.80;;;28.00;61.70;;;;;;5075370;28;20066;-80
2023/06/09 09:28:41;;;;;;;12.85;3.80;;;28.10;61.60;;;;;;5092744;28;20397;-80
2023/06/09 09:31:08;;;;;;;9.18;3.75;;;28.10;61.30;;;;;;5092739;28;20119;-81
2023/06/09 09:33:38;;;;;;;10.00;3.97;;;28.10;60.90;;;;;;5092925;28;20028;-80
2023/06/09 09:36:08;;;;;;;17.25;3.78;;;28.10;60.70;;;;;;5093056;28;20078;-81
2023/06/09 09:38:34;;;;;;;10.63;4.53;;;28.20;60.60;;;;;;5092560;28;20028;-80
2023/06/09 09:41:00;;;;;;;11.55;4.25;;;28.30;60.20;;;;;;5092692;28;20032;-82
2023/06/09 09:43:27;;;;;;;11.00;4.30;;;28.20;59.90;;;;;;5092970;28;20041;-80
2023/06/09 09:45:55;;;;;;;11.85;4.10;;;28.10;60.30;;;;;;5092344;28;20406;-80
2023/06/09 09:48:23;;;;;;;12.55;4.45;;;28.00;60.60;;;;;;5092143;28;20442;-78
2023/06/09 09:50:54;;;;;;;13.98;3.55;;;27.90;60.70;;;;;;5092363;28;20032;-81
2023/06/09 09:53:26;;;;;;;10.82;3.72;;;27.90;60.20;;;;;;5073718;28;20050;-81
2023/06/09 09:55:54;;;;;;;10.00;3.58;;;28.00;59.80;;;;;;5092086;28;20470;-80
2023/06/09 09:58:26;;;;;;;11.02;3.40;;;28.00;59.40;;;;;;5092040;28;20064;-79
2023/06/09 10:00:57;;;;;;;12.02;3.88;;;28.10;59.00;;;;;;5074462;28;20036;-79
2023/06/09 10:03:23;;;;;;;8.30;3.70;;;28.10;59.20;;;;;;5095190;28;20032;-79
2023/06/09 10:05:50;;;;;;;10.98;3.80;;;28.20;58.70;;;;;;5094779;28;20044;-81
2023/06/09 10:08:26;;;;;;;11.40;4.13;;;28.10;58.40;;;;;;5093022;28;20062;-76
2023/06/09 10:10:56;;;;;;;13.10;3.88;;;28.00;58.10;;;;;;5092521;28;20081;-80
2023/06/09 10:13:26;;;;;;;10.35;3.60;;;27.90;58.50;;;;;;5093285;28;20385;-82
2023/06/09 10:15:54;;;;;;;8.25;3.53;;;27.90;58.80;;;;;;5092879;28;20036;-80
2023/06/09 10:18:20;;;;;;;12.63;3.58;;;27.80;58.70;;;;;;5094934;28;20028;-80
2023/06/09 10:20:48;;;;;;;10.95;3.70;;;27.90;58.90;;;;;;5093303;28;20111;-82
2023/06/09 10:23:15;;;;;;;10.27;4.30;;;27.90;59.10;;;;;;5092187;28;20060;-84
2023/06/09 10:25:42;;;;;;;13.70;3.80;;;27.80;59.50;;;;;;5091611;28;20036;-81
2023/06/09 10:28:10;;;;;;;8.52;4.13;;;27.90;59.80;;;;;;5092017;28;20103;-82
2023/06/09 10:30:37;;;;;;;8.20;3.40;;;28.00;60.00;;;;;;5091902;28;20127;-81
2023/06/09 10:33:18;;;;;;;12.43;3.53;;;28.00;59.90;;;;;;5091529;28;20107;-81
2023/06/09 10:35:47;;;;;;;10.60;3.45;;;28.20;60.10;;;;;;5091731;28;20388;-81
2023/06/09 10:38:31;;;;;;;9.05;3.78;;;28.30;59.70;;;;;;5092602;28;20439;-81
2023/06/09 10:41:12;;;;;;;8.75;3.13;;;28.40;59.60;;;;;;5095196;28;20032;-80
2023/06/09 10:44:22;;;;;;;12.93;3.47;;;28.50;59.60;;;;;;5093006;28;20032;-81
2023/06/09 10:46:51;;;;;;;9.13;4.50;;;28.60;60.10;;;;;;5092204;28;20051;-80
2023/06/09 10:49:36;;;;;;;9.38;3.88;;;28.60;59.90;;;;;;5074738;28;20071;-82
2023/06/09 10:52:03;;;;;;;7.45;3.58;;;28.60;60.00;;;;;;5091720;28;20169;-82
2023/06/09 10:54:30;;;;;;;11.68;4.03;;;28.60;60.00;;;;;;5091832;28;20044;-80
2023/06/09 10:56:57;;;;;;;12.20;4.38;;;28.70;59.70;;;;;;5091843;28;20043;-80
2023/06/09 10:59:26;;;;;;;7.57;3.35;;;28.70;59.50;;;;;;5091902;28;20028;-83
2023/06/09 11:02:04;;;;;;;11.45;3.92;;;28.70;59.30;;;;;;5091700;28;20074;-80
2023/06/09 11:04:46;;;;;;;11.95;3.90;;;28.70;59.40;;;;;;5091851;28;20032;-80
2023/06/09 11:07:18;;;;;;;10.60;3.38;;;28.80;59.20;;;;;;5095179;28;20047;-82
2023/06/09 11:09:48;;;;;;;7.18;2.72;;;28.90;59.20;;;;;;5095517;28;20508;-81
2023/06/09 11:12:49;;;;;;;9.45;3.40;;;29.00;58.90;;;;;;5093904;28;20395;-81
2023/06/09 11:15:17;;;;;;;6.45;3.42;;;29.00;58.70;;;;;;5076823;28;20040;-80
2023/06/09 11:17:44;;;;;;;11.30;3.45;;;29.00;58.50;;;;;;5096196;28;20035;-80
2023/06/09 11:20:15;;;;;;;10.13;3.20;;;29.10;58.40;;;;;;5096823;28;20118;-81
2023/06/09 11:22:41;;;;;;;6.47;3.05;;;29.00;59.10;;;;;;5096694;28;20434;-80
2023/06/09 11:25:28;;;;;;;6.57;2.78;;;29.00;58.30;;;;;;5099485;28;20040;-80
2023/06/09 11:27:54;;;;;;;8.45;2.72;;;29.00;58.00;;;;;;5081569;28;20063;-81
2023/06/09 11:30:23;;;;;;;11.98;6.65;;;28.90;58.00;;;;;;5095059;28;20480;-81
2023/06/09 11:32:57;;;;;;;9.23;4.07;;;28.90;57.80;;;;;;5095230;28;20115;-82
2023/06/09 11:35:34;;;;;;;8.75;2.83;;;28.90;58.00;;;;;;5095368;28;20149;-82
2023/06/09 11:38:05;;;;;;;8.68;3.17;;;29.00;58.10;;;;;;5094959;28;20032;-82
2023/06/09 11:40:33;;;;;;;9.30;3.17;;;29.00;58.20;;;;;;5094975;28;20499;-81
2023/06/09 11:43:01;;;;;;;7.32;3.30;;;29.10;58.10;;;;;;5096159;28;20461;-81
2023/06/09 11:45:31;;;;;;;11.07;5.03;;;29.10;57.80;;;;;;5094696;28;20040;-82
2023/06/09 11:47:59;;;;;;;10.25;3.92;;;29.20;57.90;;;;;;5095098;28;20040;-80
2023/06/09 11:50:47;;;;;;;8.25;3.38;;;29.20;57.60;;;;;;5095134;28;20319;-82
2023/06/09 11:53:18;;;;;;;6.93;2.88;;;29.30;57.40;;;;;;5094460;28;20690;-81
2023/06/09 11:55:49;;;;;;;8.88;3.35;;;29.20;57.50;;;;;;5093098;28;20106;-83
2023/06/09 11:58:16;;;;;;;11.85;3.42;;;29.30;57.30;;;;;;5095023;28;20043;-80
2023/06/09 12:00:44;;;;;;;9.15;3.38;;;29.20;56.90;;;;;;5094694;28;20032;-80
2023/06/09 12:03:12;;;;;;;5.15;3.13;;;29.20;56.90;;;;;;5094502;28;20032;-81
2023/06/09 12:05:38;;;;;;;8.32;3.15;;;29.20;56.80;;;;;;5094556;28;20123;-81
2023/06/09 12:08:12;;;;;;;11.00;2.47;;;29.20;57.00;;;;;;5094671;28;20092;-81
2023/06/09 12:10:37;;;;;;;6.85;2.92;;;29.20;56.80;;;;;;5094528;28;20406;-82
2023/06/09 12:13:03;;;;;;;6.70;2.65;;;29.20;56.90;;;;;;5076041;28;20039;-81
2023/06/09 12:15:30;;;;;;;6.35;2.92;;;29.30;56.70;;;;;;5075943;28;20047;-80
2023/06/09 12:17:59;;;;;;;7.10;2.97;;;29.30;56.60;;;;;;5093916;28;20032;-81
2023/06/09 12:20:37;;;;;;;7.05;3.15;;;29.40;56.30;;;;;;5100289;28;20409;-82
2023/06/09 12:23:06;;;;;;;8.55;3.63;;;29.40;56.20;;;;;;5094485;28;20084;-81
2023/06/09 12:25:32;;;;;;;8.68;2.60;;;29.50;55.80;;;;;;5094214;28;20020;-82
2023/06/09 12:28:26;;;;;;;7.70;2.63;;;29.50;56.00;;;;;;5093900;28;20063;-81
2023/06/09 12:30:53;;;;;;;;;;;29.50;55.80;;;;;;5076535;28;20470;-82
2023/06/09 12:33:22;;;;;;;8.10;2.88;;;29.40;55.50;;;;;;5094363;28;19904;-81
2023/06/09 12:35:54;;;;;;;8.15;2.72;;;29.30;55.70;;;;;;5096549;28;20048;-81
2023/06/09 12:38:27;;;;;;;6.55;3.10;;;29.30;55.70;;;;;;5096628;28;20065;-80
2023/06/09 12:40:56;;;;;;;11.55;2.67;;;29.20;55.90;;;;;;5095159;28;20077;-81
2023/06/09 12:43:25;;;;;;;5.82;2.78;;;29.10;56.00;;;;;;5097437;28;20028;-81